createdAt,value
2022-09-29T00:01:21.228Z,4.10
2022-09-29T00:03:10.562Z,4.10
2022-09-29T00:05:11.995Z,4.10
2022-09-29T00:07:10.427Z,4.10
2022-09-29T00:09:10.348Z,4.10
2022-09-29T00:11:10.376Z,4.10
2022-09-29T00:13:10.401Z,4.10
2022-09-29T00:15:10.357Z,4.10
2022-09-29T00:17:10.346Z,4.10
2022-09-29T00:19:10.456Z,4.10
2022-09-29T00:21:10.379Z,4.20
2022-09-29T00:23:10.425Z,4.20
2022-09-29T00:25:10.363Z,4.30
2022-09-29T00:27:10.357Z,4.30
2022-09-29T00:29:10.415Z,4.30
2022-09-29T00:31:10.414Z,4.30
2022-09-29T00:33:10.414Z,4.30
2022-09-29T00:35:10.392Z,4.30
2022-09-29T00:37:10.375Z,4.30
2022-09-29T00:39:10.407Z,4.50
2022-09-29T00:41:40.418Z,4.50
2022-09-29T00:43:40.372Z,4.60
2022-09-29T00:45:40.513Z,4.70
2022-09-29T00:47:40.377Z,4.70
2022-09-29T00:49:40.482Z,4.70
2022-09-29T00:51:40.406Z,4.80
2022-09-29T00:53:40.355Z,4.90
2022-09-29T00:55:40.410Z,4.90
2022-09-29T00:57:40.410Z,4.90
2022-09-29T00:59:40.426Z,4.90
2022-09-29T01:01:40.622Z,4.90
2022-09-29T01:03:40.392Z,4.90
2022-09-29T01:05:40.442Z,4.90
2022-09-29T01:07:40.401Z,4.90
2022-09-29T01:09:40.433Z,4.80
2022-09-29T01:11:40.376Z,4.80
2022-09-29T01:13:40.522Z,4.80
2022-09-29T01:15:40.459Z,4.80
2022-09-29T01:17:40.395Z,4.80
2022-09-29T01:19:40.447Z,4.80
2022-09-29T01:21:40.410Z,4.80
2022-09-29T01:23:40.402Z,4.80
2022-09-29T01:25:40.449Z,4.80
2022-09-29T01:27:40.447Z,4.80
2022-09-29T01:29:40.477Z,4.80
2022-09-29T01:31:40.656Z,4.80
2022-09-29T01:33:40.432Z,4.80
2022-09-29T01:37:40.498Z,4.80
2022-09-29T01:41:48.694Z,4.80
2022-09-29T01:43:48.626Z,4.80
2022-09-29T01:45:48.710Z,4.80
2022-09-29T01:47:48.671Z,4.80
2022-09-29T01:49:48.654Z,4.80
2022-09-29T01:51:48.617Z,4.80
2022-09-29T01:53:48.617Z,4.80
2022-09-29T01:55:48.694Z,4.80
2022-09-29T01:57:48.608Z,4.80
2022-09-29T01:59:48.622Z,4.80
2022-09-29T02:01:48.729Z,4.80
2022-09-29T02:03:48.662Z,4.80
2022-09-29T02:05:48.625Z,4.80
2022-09-29T02:07:48.612Z,4.80
2022-09-29T02:09:48.653Z,4.80
2022-09-29T02:11:48.653Z,4.80
2022-09-29T02:13:48.645Z,4.80
2022-09-29T02:15:49.073Z,4.80
2022-09-29T02:17:48.658Z,4.80
2022-09-29T02:19:48.683Z,4.80
2022-09-29T02:21:48.698Z,4.80
2022-09-29T02:23:48.658Z,4.80
2022-09-29T02:25:48.676Z,4.80
2022-09-29T02:27:48.815Z,4.80
2022-09-29T02:29:48.656Z,4.80
2022-09-29T02:31:48.796Z,4.80
2022-09-29T02:33:48.687Z,4.80
2022-09-29T02:35:48.779Z,4.80
2022-09-29T02:37:48.696Z,4.80
2022-09-29T02:39:48.688Z,4.80
2022-09-29T02:41:48.674Z,4.80
2022-09-29T02:43:48.652Z,4.80
2022-09-29T02:45:48.751Z,4.80
2022-09-29T02:47:48.692Z,4.80
2022-09-29T02:49:48.668Z,4.80
2022-09-29T02:51:48.681Z,4.80
2022-09-29T02:53:48.660Z,4.80
2022-09-29T02:55:48.671Z,4.80
2022-09-29T02:57:48.641Z,4.80
2022-09-29T02:59:48.681Z,4.80
2022-09-29T03:01:48.662Z,4.80
2022-09-29T03:03:48.732Z,4.80
2022-09-29T03:05:48.670Z,4.80
2022-09-29T03:08:18.659Z,4.80
2022-09-29T03:10:18.848Z,4.80
2022-09-29T03:12:18.709Z,4.80
2022-09-29T03:14:18.810Z,4.80
2022-09-29T03:16:18.706Z,4.80
2022-09-29T03:18:18.725Z,4.80
2022-09-29T03:20:18.687Z,4.80
2022-09-29T03:22:18.657Z,4.80
2022-09-29T03:24:18.680Z,4.80
2022-09-29T03:26:18.717Z,4.80
2022-09-29T03:28:18.699Z,4.80
2022-09-29T03:30:18.713Z,4.80
2022-09-29T03:32:18.709Z,4.80
2022-09-29T03:34:18.675Z,4.80
2022-09-29T03:36:18.764Z,4.80
2022-09-29T03:38:18.777Z,4.80
2022-09-29T03:40:18.773Z,4.80
2022-09-29T03:42:18.688Z,4.80
2022-09-29T03:44:18.689Z,4.80
2022-09-29T03:46:18.724Z,4.80
2022-09-29T03:48:21.771Z,4.80
2022-09-29T03:50:18.696Z,4.80
2022-09-29T03:52:18.703Z,4.80
2022-09-29T03:54:18.792Z,4.80
2022-09-29T03:56:18.727Z,4.80
2022-09-29T03:58:18.706Z,4.80
2022-09-29T04:00:18.723Z,4.80
2022-09-29T04:02:18.859Z,4.80
2022-09-29T04:04:18.676Z,4.80
2022-09-29T04:06:18.833Z,4.80
2022-09-29T04:08:18.716Z,4.80
2022-09-29T04:10:18.762Z,4.80
2022-09-29T04:12:18.739Z,4.80
2022-09-29T04:14:18.725Z,4.80
2022-09-29T04:16:18.724Z,4.80
2022-09-29T04:18:18.699Z,4.80
2022-09-29T04:20:18.707Z,4.80
2022-09-29T04:22:18.706Z,4.80
2022-09-29T04:24:18.702Z,4.80
2022-09-29T04:26:18.758Z,4.80
2022-09-29T04:28:18.742Z,4.80
2022-09-29T04:30:18.731Z,4.80
2022-09-29T04:32:18.808Z,4.80
2022-09-29T04:34:19.200Z,4.80
2022-09-29T04:36:18.747Z,4.80
2022-09-29T04:38:18.798Z,4.80
2022-09-29T04:40:18.752Z,4.80
2022-09-29T04:42:18.747Z,4.80
2022-09-29T04:44:21.623Z,4.80
2022-09-29T04:46:18.822Z,4.80
2022-09-29T04:48:18.726Z,4.80
2022-09-29T04:50:18.713Z,4.80
2022-09-29T04:52:18.860Z,4.80
2022-09-29T04:54:18.846Z,4.80
2022-09-29T04:56:18.754Z,4.80
2022-09-29T04:58:18.721Z,4.80
2022-09-29T05:00:18.800Z,4.80
2022-09-29T05:02:49.973Z,4.80
2022-09-29T05:04:48.722Z,4.80
2022-09-29T05:06:48.723Z,4.80
2022-09-29T05:08:48.726Z,4.80
2022-09-29T05:10:48.752Z,4.80
2022-09-29T05:12:48.827Z,4.80
2022-09-29T05:14:48.726Z,4.80
2022-09-29T05:16:48.812Z,4.80
2022-09-29T05:18:48.760Z,4.80
2022-09-29T05:21:10.242Z,4.80
2022-09-29T05:22:48.772Z,4.80
2022-09-29T05:24:48.843Z,4.80
2022-09-29T05:26:48.744Z,4.80
2022-09-29T05:28:49.080Z,4.80
2022-09-29T05:30:48.778Z,4.80
2022-09-29T05:32:48.776Z,4.80
2022-09-29T05:34:48.745Z,4.80
2022-09-29T05:36:48.788Z,4.80
2022-09-29T05:38:48.820Z,4.80
2022-09-29T05:40:48.855Z,4.80
2022-09-29T05:42:48.758Z,4.80
2022-09-29T05:44:48.747Z,4.80
2022-09-29T05:46:48.755Z,4.80
2022-09-29T05:48:48.873Z,4.80
2022-09-29T05:50:48.737Z,4.80
2022-09-29T05:52:48.799Z,4.80
2022-09-29T05:54:48.753Z,4.80
2022-09-29T05:56:48.809Z,4.80
2022-09-29T05:58:48.787Z,4.80
2022-09-29T06:00:48.842Z,4.80
2022-09-29T06:02:48.820Z,4.80
2022-09-29T06:04:48.778Z,4.80
2022-09-29T06:06:48.764Z,4.80
2022-09-29T06:08:48.777Z,4.80
2022-09-29T06:10:48.758Z,4.80
2022-09-29T06:12:48.800Z,4.80
2022-09-29T06:14:48.753Z,4.80
2022-09-29T06:16:48.852Z,4.80
2022-09-29T06:18:48.782Z,4.80
2022-09-29T06:20:48.764Z,4.80
2022-09-29T06:22:48.788Z,4.80
2022-09-29T06:24:48.799Z,4.80
2022-09-29T06:26:48.776Z,4.80
2022-09-29T06:28:48.777Z,4.80
2022-09-29T06:30:48.836Z,4.80
2022-09-29T06:32:48.822Z,4.80
2022-09-29T06:34:48.787Z,4.80
2022-09-29T06:36:48.879Z,4.80
2022-09-29T06:38:48.779Z,4.80
2022-09-29T06:40:48.882Z,4.80
2022-09-29T06:42:48.807Z,4.80
2022-09-29T06:44:48.856Z,4.80
2022-09-29T06:46:48.842Z,4.80
2022-09-29T06:48:48.808Z,4.80
2022-09-29T06:50:57.856Z,4.80
2022-09-29T06:52:59.198Z,4.80
2022-09-29T06:54:48.825Z,4.80
2022-09-29T06:56:48.807Z,4.80
2022-09-29T06:59:18.937Z,4.80
2022-09-29T07:01:18.857Z,4.80
2022-09-29T07:03:18.808Z,4.80
2022-09-29T07:05:18.843Z,4.80
2022-09-29T07:07:18.790Z,4.80
2022-09-29T07:09:18.927Z,4.80
2022-09-29T07:11:18.798Z,4.80
2022-09-29T07:13:18.834Z,4.80
2022-09-29T07:15:18.810Z,4.80
2022-09-29T07:17:18.799Z,4.80
2022-09-29T07:19:18.872Z,4.80
2022-09-29T07:21:18.890Z,4.80
2022-09-29T07:23:18.798Z,4.80
2022-09-29T07:25:28.058Z,4.80
2022-09-29T07:27:18.792Z,4.80
2022-09-29T07:29:18.970Z,4.80
2022-09-29T07:31:18.921Z,4.80
2022-09-29T07:33:24.568Z,4.80
2022-09-29T07:35:18.856Z,4.80
2022-09-29T07:37:18.923Z,4.80
2022-09-29T07:39:18.984Z,4.80
2022-09-29T07:41:18.964Z,4.80
2022-09-29T07:43:18.826Z,4.80
2022-09-29T07:45:18.856Z,4.80
2022-09-29T07:47:18.814Z,4.80
2022-09-29T07:49:19.036Z,4.80
2022-09-29T07:51:18.822Z,4.80
2022-09-29T07:53:18.863Z,4.80
2022-09-29T07:55:18.827Z,4.80
2022-09-29T07:57:18.922Z,4.80
2022-09-29T07:59:18.809Z,4.80
2022-09-29T08:01:18.967Z,4.80
2022-09-29T08:03:18.839Z,4.80
2022-09-29T08:05:18.875Z,4.80
2022-09-29T08:07:18.916Z,4.80
2022-09-29T08:09:19.016Z,4.80
2022-09-29T08:11:28.527Z,4.80
2022-09-29T08:13:18.886Z,4.80
2022-09-29T08:15:18.853Z,4.80
2022-09-29T08:17:18.840Z,4.80
2022-09-29T08:19:18.884Z,4.80
2022-09-29T08:21:18.857Z,4.80
2022-09-29T08:23:18.878Z,4.80
2022-09-29T08:25:18.901Z,4.80
2022-09-29T08:27:19.414Z,4.80
2022-09-29T08:29:18.891Z,4.80
2022-09-29T08:31:18.976Z,4.80
2022-09-29T08:33:18.860Z,4.80
2022-09-29T08:35:18.838Z,4.80
2022-09-29T08:37:18.862Z,4.80
2022-09-29T08:39:18.963Z,4.80
2022-09-29T08:41:18.900Z,4.80
2022-09-29T08:43:29.483Z,4.80
2022-09-29T08:45:34.595Z,4.80
2022-09-29T08:47:42.955Z,4.80
2022-09-29T08:49:34.570Z,4.80
2022-09-29T08:51:41.244Z,4.80
2022-09-29T08:53:34.561Z,4.80
2022-09-29T08:55:34.562Z,4.80
2022-09-29T08:57:34.622Z,4.80
2022-09-29T08:59:34.596Z,4.80
2022-09-29T09:01:34.770Z,4.80
2022-09-29T09:03:34.606Z,4.80
2022-09-29T09:05:34.554Z,4.80
2022-09-29T09:07:34.645Z,4.80
2022-09-29T09:09:34.612Z,4.80
2022-09-29T09:11:34.664Z,4.80
2022-09-29T09:13:34.585Z,4.80
2022-09-29T09:15:34.569Z,4.80
2022-09-29T09:17:34.609Z,4.80
2022-09-29T09:19:34.556Z,4.80
2022-09-29T09:21:34.601Z,4.80
2022-09-29T09:23:34.582Z,4.80
2022-09-29T09:25:34.617Z,4.80
2022-09-29T09:27:34.631Z,4.80
2022-09-29T09:29:37.720Z,4.80
2022-09-29T09:31:34.604Z,4.80
2022-09-29T09:33:34.609Z,4.80
2022-09-29T09:35:34.591Z,4.80
2022-09-29T09:37:34.626Z,4.80
2022-09-29T09:39:34.692Z,4.80
2022-09-29T09:41:36.178Z,4.80
2022-09-29T09:43:34.853Z,4.80
2022-09-29T09:45:34.689Z,4.80
2022-09-29T09:47:34.681Z,4.80
2022-09-29T09:49:34.749Z,4.80
2022-09-29T09:51:34.655Z,4.80
2022-09-29T09:53:34.687Z,4.80
2022-09-29T09:55:34.670Z,4.80
2022-09-29T09:57:34.609Z,4.80
2022-09-29T10:00:04.695Z,4.80
2022-09-29T10:02:04.679Z,4.80
2022-09-29T10:04:04.599Z,4.80
2022-09-29T10:06:04.630Z,4.80
2022-09-29T10:08:04.603Z,4.80
2022-09-29T10:10:04.638Z,4.80
2022-09-29T10:12:04.633Z,4.80
2022-09-29T10:14:04.669Z,4.80
2022-09-29T10:16:04.609Z,4.80
2022-09-29T10:18:04.659Z,4.80
2022-09-29T10:20:04.665Z,4.80
2022-09-29T10:22:04.646Z,4.80
2022-09-29T10:24:04.626Z,4.80
2022-09-29T10:26:04.642Z,4.80
2022-09-29T10:28:04.696Z,4.80
2022-09-29T10:30:04.673Z,4.80
2022-09-29T10:32:04.646Z,4.80
2022-09-29T10:34:04.669Z,4.80
2022-09-29T10:36:04.634Z,4.80
2022-09-29T10:38:04.608Z,4.80
2022-09-29T10:40:04.649Z,4.80
2022-09-29T10:42:04.635Z,4.80
2022-09-29T10:44:04.660Z,4.80
2022-09-29T10:46:04.665Z,4.80
2022-09-29T10:48:04.670Z,4.80
2022-09-29T10:50:04.656Z,4.80
2022-09-29T10:52:04.674Z,4.80
2022-09-29T10:54:04.701Z,4.80
2022-09-29T10:56:04.630Z,4.80
2022-09-29T10:58:04.679Z,4.80
2022-09-29T11:00:04.657Z,4.80
2022-09-29T11:02:04.730Z,4.80
2022-09-29T11:04:04.794Z,4.80
2022-09-29T11:06:04.661Z,4.80
2022-09-29T11:08:04.676Z,4.80
2022-09-29T11:10:04.719Z,4.80
2022-09-29T11:12:09.253Z,4.80
2022-09-29T11:14:04.727Z,4.80
2022-09-29T11:16:04.673Z,4.80
2022-09-29T11:18:04.780Z,4.80
2022-09-29T11:20:04.680Z,4.80
2022-09-29T11:22:04.667Z,4.80
2022-09-29T11:24:04.658Z,4.80
2022-09-29T11:26:04.689Z,4.80
2022-09-29T11:28:04.745Z,4.80
2022-09-29T11:30:04.644Z,4.80
2022-09-29T11:32:04.695Z,4.80
2022-09-29T11:34:05.074Z,4.80
2022-09-29T11:36:04.686Z,4.80
2022-09-29T11:38:04.654Z,4.80
2022-09-29T11:40:04.688Z,4.80
2022-09-29T11:42:04.728Z,4.80
2022-09-29T11:44:08.194Z,4.80
2022-09-29T11:46:04.814Z,4.80
2022-09-29T11:48:04.689Z,4.80
2022-09-29T11:50:04.740Z,4.80
2022-09-29T11:52:04.669Z,4.80
2022-09-29T11:54:06.666Z,4.80
2022-09-29T11:56:04.735Z,4.80
2022-09-29T11:58:34.798Z,4.80
2022-09-29T12:00:34.731Z,4.80
2022-09-29T12:02:34.771Z,4.80
2022-09-29T12:04:34.725Z,4.80
2022-09-29T12:06:34.725Z,4.80
2022-09-29T12:08:34.693Z,4.80
2022-09-29T12:10:34.713Z,4.80
2022-09-29T12:12:34.724Z,4.80
2022-09-29T12:14:37.712Z,4.80
2022-09-29T12:16:34.881Z,4.80
2022-09-29T12:18:34.783Z,4.80
2022-09-29T12:20:34.747Z,4.80
2022-09-29T12:22:36.842Z,4.80
2022-09-29T12:24:34.774Z,4.80
2022-09-29T12:26:34.742Z,4.80
2022-09-29T12:28:34.767Z,4.80
2022-09-29T12:30:34.779Z,4.80
2022-09-29T12:32:34.715Z,4.80
2022-09-29T12:34:34.778Z,4.80
2022-09-29T12:36:34.707Z,4.80
2022-09-29T12:38:34.710Z,4.80
2022-09-29T12:40:34.757Z,4.80
2022-09-29T12:42:34.819Z,4.80
2022-09-29T12:44:34.728Z,4.80
2022-09-29T12:46:34.806Z,4.80
2022-09-29T12:48:34.747Z,4.80
2022-09-29T12:50:34.714Z,4.80
2022-09-29T12:52:34.753Z,4.80
2022-09-29T12:54:34.749Z,4.80
2022-09-29T12:56:34.860Z,4.80
2022-09-29T12:58:34.728Z,4.80
2022-09-29T13:00:34.744Z,4.80
2022-09-29T13:02:34.812Z,4.80
2022-09-29T13:04:34.768Z,4.80
2022-09-29T13:06:34.766Z,4.80
2022-09-29T13:08:34.728Z,4.80
2022-09-29T13:10:34.918Z,4.80
2022-09-29T13:12:34.750Z,4.80
2022-09-29T13:14:34.772Z,4.80
2022-09-29T13:16:34.783Z,4.80
2022-09-29T13:18:34.820Z,4.80
2022-09-29T13:20:34.839Z,4.80
2022-09-29T13:22:34.795Z,4.80
2022-09-29T13:24:34.947Z,4.80
2022-09-29T13:26:34.748Z,4.80
2022-09-29T13:28:34.816Z,4.80
2022-09-29T13:30:34.906Z,4.80
2022-09-29T13:32:34.940Z,4.80
2022-09-29T13:34:34.797Z,4.80
2022-09-29T13:36:34.886Z,4.80
2022-09-29T13:38:34.931Z,4.80
2022-09-29T13:40:34.880Z,4.80
2022-09-29T13:42:34.774Z,4.80
2022-09-29T13:44:34.780Z,4.80
2022-09-29T13:46:34.842Z,4.80
2022-09-29T13:48:34.912Z,4.80
2022-09-29T13:50:34.848Z,4.80
2022-09-29T13:52:34.862Z,4.80
2022-09-29T13:54:35.024Z,4.80
2022-09-29T13:57:04.777Z,4.80
2022-09-29T13:59:05.864Z,4.80
2022-09-29T14:01:04.929Z,4.80
2022-09-29T14:03:04.841Z,4.80
2022-09-29T14:05:04.890Z,4.80
2022-09-29T14:07:04.909Z,4.80
2022-09-29T14:09:04.953Z,4.80
2022-09-29T14:11:04.894Z,4.80
2022-09-29T14:13:04.867Z,4.80
2022-09-29T14:15:04.847Z,4.80
2022-09-29T14:17:04.855Z,4.80
2022-09-29T14:19:05.984Z,4.80
2022-09-29T14:21:04.880Z,4.80
2022-09-29T14:23:04.857Z,4.80
2022-09-29T14:25:04.781Z,4.80
2022-09-29T14:27:04.999Z,4.80
2022-09-29T14:29:04.854Z,4.80
2022-09-29T14:31:04.910Z,4.80
2022-09-29T14:33:04.875Z,4.80
2022-09-29T14:35:04.870Z,4.80
2022-09-29T14:37:05.709Z,4.80
2022-09-29T14:39:25.189Z,4.80
2022-09-29T14:41:04.909Z,4.80
2022-09-29T14:45:05.875Z,4.80
2022-09-29T14:47:05.039Z,4.80
2022-09-29T14:49:04.876Z,4.80
2022-09-29T14:51:05.009Z,4.80
2022-09-29T14:53:04.934Z,4.80
2022-09-29T14:55:05.016Z,4.80
2022-09-29T14:57:04.935Z,4.80
2022-09-29T14:59:05.857Z,4.80
2022-09-29T15:01:04.864Z,4.80
2022-09-29T15:03:26.726Z,4.80
2022-09-29T15:05:04.915Z,4.80
2022-09-29T15:07:04.894Z,4.80
2022-09-29T15:09:05.003Z,4.80
2022-09-29T15:11:04.902Z,4.80
2022-09-29T15:13:04.958Z,4.80
2022-09-29T15:15:04.914Z,4.80
2022-09-29T15:17:04.963Z,4.80
2022-09-29T15:19:04.920Z,4.80
2022-09-29T15:21:04.886Z,4.80
2022-09-29T15:23:04.907Z,4.80
2022-09-29T15:25:10.182Z,4.80
2022-09-29T15:27:04.993Z,4.80
2022-09-29T15:29:05.111Z,4.80
2022-09-29T15:31:05.054Z,4.80
2022-09-29T15:33:04.981Z,4.80
2022-09-29T15:35:04.929Z,4.80
2022-09-29T15:37:04.982Z,4.80
2022-09-29T15:39:05.933Z,4.80
2022-09-29T15:41:04.981Z,4.80
2022-09-29T15:43:04.984Z,4.80
2022-09-29T15:45:04.870Z,4.80
2022-09-29T15:47:14.558Z,4.80
2022-09-29T15:49:14.152Z,4.80
2022-09-29T15:51:14.063Z,4.80
2022-09-29T15:53:14.139Z,4.80
2022-09-29T15:55:14.050Z,4.80
2022-09-29T15:57:14.114Z,4.80
2022-09-29T15:59:14.122Z,4.80
2022-09-29T16:01:14.202Z,4.80
2022-09-29T16:03:14.147Z,4.80
2022-09-29T16:05:14.189Z,4.80
2022-09-29T16:07:14.108Z,4.80
2022-09-29T16:09:14.249Z,4.80
2022-09-29T16:11:14.046Z,4.80
2022-09-29T16:13:14.098Z,4.80
2022-09-29T16:15:14.117Z,4.80
2022-09-29T16:17:16.074Z,4.80
2022-09-29T16:19:14.137Z,4.80
2022-09-29T16:21:14.174Z,4.80
2022-09-29T16:23:14.058Z,4.80
2022-09-29T16:25:14.063Z,4.80
2022-09-29T16:27:15.251Z,4.80
2022-09-29T16:29:44.171Z,4.80
2022-09-29T16:31:44.118Z,4.80
2022-09-29T16:33:44.204Z,4.80
2022-09-29T16:35:44.178Z,4.80
2022-09-29T16:37:44.116Z,4.80
2022-09-29T16:39:44.053Z,4.80
2022-09-29T16:41:44.114Z,4.80
2022-09-29T16:43:44.141Z,4.80
2022-09-29T16:45:44.151Z,4.80
2022-09-29T16:47:44.174Z,4.80
2022-09-29T16:49:44.180Z,4.80
2022-09-29T16:51:44.203Z,4.80
2022-09-29T16:53:44.071Z,4.80
2022-09-29T16:55:44.111Z,4.80
2022-09-29T16:57:44.085Z,4.80
2022-09-29T16:59:44.119Z,4.80
2022-09-29T17:01:44.185Z,4.80
2022-09-29T17:03:44.274Z,4.80
2022-09-29T17:05:44.183Z,4.80
2022-09-29T17:07:44.173Z,4.80
2022-09-29T17:09:44.083Z,4.80
2022-09-29T17:11:44.136Z,4.80
2022-09-29T17:13:44.144Z,4.80
2022-09-29T17:15:44.194Z,4.80
2022-09-29T17:17:44.165Z,4.80
2022-09-29T17:19:44.141Z,4.80
2022-09-29T17:21:44.228Z,4.80
2022-09-29T17:23:44.095Z,4.80
2022-09-29T17:25:44.111Z,4.80
2022-09-29T17:27:44.176Z,4.80
2022-09-29T17:29:44.189Z,4.80
2022-09-29T17:31:44.167Z,4.80
2022-09-29T17:33:44.206Z,4.80
2022-09-29T17:35:44.200Z,4.80
2022-09-29T17:37:44.226Z,4.80
2022-09-29T17:39:44.282Z,4.80
2022-09-29T17:41:46.068Z,4.80
2022-09-29T17:43:44.121Z,4.80
2022-09-29T17:45:44.104Z,4.80
2022-09-29T17:47:44.174Z,4.80
2022-09-29T17:49:44.255Z,4.80
2022-09-29T17:51:44.261Z,4.80
2022-09-29T17:53:44.152Z,4.80
2022-09-29T17:55:44.085Z,4.80
2022-09-29T17:57:44.161Z,4.80
2022-09-29T17:59:44.131Z,4.80
2022-09-29T18:01:44.230Z,4.80
2022-09-29T18:03:44.237Z,4.80
2022-09-29T18:05:44.193Z,4.80
2022-09-29T18:07:44.238Z,4.80
2022-09-29T18:09:44.303Z,4.80
2022-09-29T18:11:44.131Z,4.80
2022-09-29T18:13:44.150Z,4.80
2022-09-29T18:15:44.253Z,4.80
2022-09-29T18:17:44.182Z,4.80
2022-09-29T18:19:44.163Z,4.80
2022-09-29T18:21:44.252Z,4.80
2022-09-29T18:24:14.229Z,4.80
2022-09-29T18:26:14.285Z,4.80
2022-09-29T18:28:16.228Z,4.80
2022-09-29T18:32:14.187Z,4.80
2022-09-29T18:34:16.190Z,4.80
2022-09-29T18:36:14.200Z,4.80
2022-09-29T18:38:14.226Z,4.80
2022-09-29T18:40:14.260Z,4.80
2022-09-29T18:42:14.136Z,4.80
2022-09-29T18:44:14.230Z,4.80
2022-09-29T18:46:14.134Z,4.80
2022-09-29T18:48:14.200Z,4.80
2022-09-29T18:50:14.192Z,4.80
2022-09-29T18:52:14.230Z,4.80
2022-09-29T18:54:14.145Z,4.80
2022-09-29T18:56:14.176Z,4.80
2022-09-29T18:58:14.280Z,4.80
2022-09-29T19:00:15.741Z,4.80
2022-09-29T19:02:14.319Z,4.80
2022-09-29T19:04:14.272Z,4.80
2022-09-29T19:06:14.230Z,4.80
2022-09-29T19:08:14.181Z,4.80
2022-09-29T19:10:14.286Z,4.80
2022-09-29T19:12:16.293Z,4.80
2022-09-29T19:14:15.180Z,4.80
2022-09-29T19:16:14.281Z,4.80
2022-09-29T19:18:14.246Z,4.80
2022-09-29T19:20:14.196Z,4.80
2022-09-29T19:22:14.286Z,4.80
2022-09-29T19:24:14.283Z,4.80
2022-09-29T19:26:14.314Z,4.80
2022-09-29T19:28:14.307Z,4.80
2022-09-29T19:30:14.300Z,4.80
2022-09-29T19:32:14.236Z,4.80
2022-09-29T19:34:14.155Z,4.80
2022-09-29T19:36:14.226Z,4.80
2022-09-29T19:38:14.287Z,4.80
2022-09-29T19:40:14.221Z,4.80
2022-09-29T19:42:14.158Z,4.80
2022-09-29T19:44:14.181Z,4.80
2022-09-29T19:46:14.281Z,4.80
2022-09-29T19:48:14.249Z,4.80
2022-09-29T19:50:14.163Z,4.80
2022-09-29T19:52:14.188Z,4.80
2022-09-29T19:54:14.366Z,4.80
2022-09-29T19:56:14.203Z,4.80
2022-09-29T19:58:14.186Z,4.80
2022-09-29T20:00:14.228Z,4.80
2022-09-29T20:02:14.170Z,4.80
2022-09-29T20:04:14.388Z,4.80
2022-09-29T20:06:14.188Z,4.80
2022-09-29T20:08:14.238Z,4.80
2022-09-29T20:10:14.214Z,4.80
2022-09-29T20:12:19.183Z,4.80
2022-09-29T20:14:44.202Z,6.80
2022-09-29T20:16:44.297Z,6.80
2022-09-29T20:18:48.117Z,6.90
2022-09-29T20:20:44.264Z,7.00
2022-09-29T20:22:44.290Z,7.20
2022-09-29T20:24:44.317Z,7.20
2022-09-29T20:26:44.240Z,7.20
2022-09-29T20:28:44.259Z,7.20
2022-09-29T20:30:44.219Z,7.20
2022-09-29T20:32:44.322Z,7.10
2022-09-29T20:34:44.251Z,7.00
2022-09-29T20:36:44.220Z,7.00
2022-09-29T20:38:44.201Z,7.00
2022-09-29T20:40:44.347Z,7.00
2022-09-29T20:42:44.235Z,6.90
2022-09-29T20:44:44.245Z,6.90
2022-09-29T20:46:47.817Z,6.90
2022-09-29T20:48:44.263Z,6.80
2022-09-29T20:50:44.215Z,6.70
2022-09-29T20:52:44.193Z,6.70
2022-09-29T20:54:44.250Z,6.70
2022-09-29T20:56:45.356Z,6.70
2022-09-29T20:58:44.244Z,6.60
2022-09-29T21:00:44.348Z,6.50
2022-09-29T21:02:44.444Z,6.50
2022-09-29T21:04:44.264Z,6.50
2022-09-29T21:06:44.246Z,6.40
2022-09-29T21:08:44.294Z,6.40
2022-09-29T21:10:44.247Z,6.40
2022-09-29T21:12:44.274Z,6.40
2022-09-29T21:14:44.250Z,6.40
2022-09-29T21:16:44.238Z,6.40
2022-09-29T21:18:44.283Z,6.40
2022-09-29T21:20:44.270Z,6.30
2022-09-29T21:22:44.232Z,6.30
2022-09-29T21:24:45.225Z,6.30
2022-09-29T21:26:44.280Z,6.30
2022-09-29T21:28:44.232Z,6.40
2022-09-29T21:30:44.271Z,6.50
2022-09-29T21:32:44.252Z,6.50
2022-09-29T21:34:44.280Z,6.60
2022-09-29T21:36:44.258Z,6.60
2022-09-29T21:38:44.291Z,6.70
2022-09-29T21:40:44.297Z,6.70
2022-09-29T21:42:44.253Z,6.70
2022-09-29T21:44:44.267Z,6.80
2022-09-29T21:46:44.372Z,6.80
2022-09-29T21:48:44.328Z,6.80
2022-09-29T21:50:44.292Z,6.80
2022-09-29T21:52:44.277Z,6.80
2022-09-29T21:54:44.379Z,6.80
2022-09-29T21:56:44.311Z,6.80
2022-09-29T21:58:44.397Z,6.80
2022-09-29T22:00:44.315Z,6.80
2022-09-29T22:02:44.375Z,6.80
2022-09-29T22:04:44.276Z,6.80
2022-09-29T22:06:44.340Z,6.70
2022-09-29T22:09:14.332Z,6.70
2022-09-29T22:11:14.258Z,6.70
2022-09-29T22:13:14.283Z,6.60
2022-09-29T22:15:14.320Z,6.50
2022-09-29T22:17:14.270Z,6.50
2022-09-29T22:19:24.619Z,6.50
2022-09-29T22:21:14.283Z,6.30
2022-09-29T22:23:14.266Z,6.20
2022-09-29T22:25:14.364Z,6.20
2022-09-29T22:27:14.285Z,6.30
2022-09-29T22:29:14.318Z,6.30
2022-09-29T22:31:14.288Z,6.20
2022-09-29T22:33:14.277Z,6.10
2022-09-29T22:35:14.265Z,6.00
2022-09-29T22:37:14.317Z,6.00
2022-09-29T22:39:15.448Z,6.00
2022-09-29T22:41:14.278Z,5.90
2022-09-29T22:43:14.309Z,5.80
2022-09-29T22:45:14.271Z,5.80
2022-09-29T22:47:14.315Z,5.80
2022-09-29T22:49:14.358Z,5.60
2022-09-29T22:51:14.357Z,5.50
2022-09-29T22:53:14.298Z,5.40
2022-09-29T22:55:14.303Z,5.40
2022-09-29T22:57:14.280Z,5.40
2022-09-29T22:59:14.327Z,5.40
2022-09-29T23:01:14.318Z,5.20
2022-09-29T23:05:09.658Z,4.90
2022-09-29T23:07:09.618Z,4.90
2022-09-29T23:09:09.745Z,4.90
2022-09-29T23:11:09.656Z,4.80
2022-09-29T23:13:09.691Z,4.70
2022-09-29T23:15:09.621Z,4.70
2022-09-29T23:17:09.626Z,4.90
2022-09-29T23:19:09.669Z,5.20
2022-09-29T23:21:09.653Z,5.30
2022-09-29T23:23:09.616Z,5.40
2022-09-29T23:25:09.622Z,5.40
2022-09-29T23:27:09.634Z,5.50
2022-09-29T23:29:09.687Z,5.40
2022-09-29T23:31:09.660Z,5.20
2022-09-29T23:33:09.630Z,5.20
2022-09-29T23:35:09.650Z,5.20
2022-09-29T23:37:09.647Z,5.20
2022-09-29T23:39:09.712Z,5.20
2022-09-29T23:41:09.621Z,5.20
2022-09-29T23:43:09.647Z,5.10
2022-09-29T23:45:39.720Z,4.90
2022-09-29T23:47:39.707Z,4.90
2022-09-29T23:49:39.781Z,4.90
2022-09-29T23:51:39.760Z,4.70
2022-09-29T23:53:39.660Z,4.70
2022-09-29T23:55:39.741Z,4.60
2022-09-29T23:57:39.669Z,4.60
2022-09-29T23:59:39.655Z,4.50
